Hlavní strana
METAR-TAF:

METAR-TAF

Letiště :

Mécheria, Alžírsko

zeměpisná šířka: 34-56N, zeměpisná délka: 000-26W, výška: 1149 m

Aktuální stav počasí

Zpráva byla vytvořena před 1 hodinou a 0 minutami, v 22:00 UTC
Severoseverovýchodní vítr 6 kt
Teplota 9°C
Vlhkost vzduchu 53%
Tlak 1032 hPa
Viditelnost: 6000 m
Skoro jasno ve výšce 2600 ft

METAR: DAAY 242200Z 03006KT 6000 FEW026 09/00 Q1032

Čas: 00:00 (23:00 UTC)

Předpověď počasí

Zpráva byla vytvořena před 3 hodinami a 0 minutami, v 20:00 UTC
Předpověď platná od 24 v 21 UTC do 25 v 06 UTC
Východní vítr 10 kt
Viditelnost: 5000 m
Skoro jasno ve výšce 2600 ft

TAF: DAAY 242000Z 2421/2506 08010KT 5000 FEW026

Stav a předpovědi počasí z více než 4 000 letišť (zprávy METAR a TAF).

Červené a žluté tečky na mapě představují dostupné meteorologické stanice.

Když kurzor umístíte na tečku, zobrazí se název stanice.

Pak kliknutím zobrazíte stav a předpověď počasí.

Chcete-li změnit mapu, kliknutím na zelené tlačítko se znaménkem +mapu přiblížíte, kliknutím na zelené tlačítko se znaménkem – mapu oddálíte a kliknutím na zelené šipky přejdete na sousední mapy.


METAR-TAF: